Time;durP1;ratioP1;P1;durP2;ratioP2;P2;SDS_P1;SDS_P2;PMS_P1;PMS_P2;Temp;Humidity;BMP_temperature;BMP_pressure;BME280_temperature;BME280_humidity;BME280_pressure;Samples;Min_cycle;Max_cycle;Signal;HPM_P1;HPM_P2
2023/02/23 00:02:05;;;;;;;10.73;9.60;;;17.70;56.30;;;;;;5114809;28;20185;-58
2023/02/23 00:04:30;;;;;;;11.57;10.38;;;17.70;56.30;;;;;;5115580;28;20198;-58
2023/02/23 00:06:56;;;;;;;11.27;10.13;;;17.70;56.40;;;;;;5115178;28;20169;-58
2023/02/23 00:09:22;;;;;;;11.52;10.43;;;17.70;56.40;;;;;;5114668;28;20691;-54
2023/02/23 00:11:49;;;;;;;11.23;10.10;;;17.70;56.40;;;;;;5115069;28;20519;-55
2023/02/23 00:14:15;;;;;;;11.82;9.77;;;17.60;56.40;;;;;;5115161;28;20181;-57
2023/02/23 00:16:44;;;;;;;13.30;10.18;;;17.60;56.40;;;;;;5114000;28;20229;-57
2023/02/23 00:19:10;;;;;;;11.48;9.77;;;17.60;56.40;;;;;;5114965;28;20256;-57
2023/02/23 00:21:36;;;;;;;11.32;10.23;;;17.60;56.40;;;;;;5114840;28;20173;-54
2023/02/23 00:24:07;;;;;;;11.15;9.85;;;17.60;56.40;;;;;;5114247;28;20264;-56
2023/02/23 00:26:34;;;;;;;11.07;9.90;;;17.60;56.40;;;;;;5115041;28;20180;-55
2023/02/23 00:29:01;;;;;;;11.27;10.10;;;17.50;56.40;;;;;;5115389;28;20209;-56
2023/02/23 00:31:27;;;;;;;11.07;9.75;;;17.60;56.50;;;;;;5114333;28;20173;-56
2023/02/23 00:34:02;;;;;;;11.48;10.07;;;17.50;56.40;;;;;;5114749;28;20550;-57
2023/02/23 00:36:32;;;;;;;12.27;10.65;;;17.50;56.40;;;;;;5114777;28;20198;-57
2023/02/23 00:39:04;;;;;;;11.75;10.57;;;17.50;56.40;;;;;;5114472;28;20264;-58
2023/02/23 00:41:30;;;;;;;11.82;9.90;;;17.50;56.50;;;;;;5115539;27;20177;-58
2023/02/23 00:43:57;;;;;;;11.02;9.85;;;17.50;56.50;;;;;;5114885;28;20169;-58
2023/02/23 00:46:25;;;;;;;11.50;10.18;;;17.50;56.50;;;;;;5114911;28;20692;-56
2023/02/23 00:48:51;;;;;;;11.13;10.02;;;17.50;56.50;;;;;;5114720;28;20662;-57
2023/02/23 00:51:17;;;;;;;11.23;10.05;;;17.40;56.40;;;;;;5114489;28;20943;-56
2023/02/23 00:53:43;;;;;;;11.50;10.32;;;17.40;56.40;;;;;;5114756;28;20165;-55
2023/02/23 00:56:10;;;;;;;12.35;11.05;;;17.40;56.40;;;;;;5114853;28;20198;-56
2023/02/23 00:58:36;;;;;;;10.85;9.63;;;17.30;56.40;;;;;;5113792;28;20191;-55
2023/02/23 01:01:04;;;;;;;11.88;10.68;;;17.40;56.40;;;;;;5114773;28;20169;-58
2023/02/23 01:03:30;;;;;;;12.50;11.23;;;17.40;56.50;;;;;;5114688;28;20177;-58
2023/02/23 01:05:59;;;;;;;11.95;10.68;;;17.40;56.50;;;;;;5113704;28;20243;-58
2023/02/23 01:08:26;;;;;;;11.25;10.05;;;17.40;56.40;;;;;;5114659;28;20225;-56
2023/02/23 01:10:52;;;;;;;12.43;10.43;;;17.30;56.40;;;;;;5114337;28;20263;-55
2023/02/23 01:13:19;;;;;;;11.32;9.43;;;17.30;56.40;;;;;;5113760;28;20249;-57
2023/02/23 01:15:46;;;;;;;13.68;11.43;;;17.30;56.40;;;;;;5114308;28;20196;-56
2023/02/23 01:18:12;;;;;;;11.38;10.18;;;17.30;56.40;;;;;;5114177;28;20311;-57
2023/02/23 01:20:40;;;;;;;11.73;10.35;;;17.30;56.40;;;;;;5113610;28;20193;-56
2023/02/23 01:23:06;;;;;;;11.38;10.18;;;17.30;56.50;;;;;;5114736;28;20508;-56
2023/02/23 01:25:32;;;;;;;12.20;10.48;;;17.30;56.40;;;;;;5114127;28;20622;-57
2023/02/23 01:27:57;;;;;;;10.93;9.82;;;17.30;56.40;;;;;;5113489;28;20212;-52
2023/02/23 01:30:23;;;;;;;12.07;10.82;;;17.30;56.50;;;;;;5114079;28;20169;-54
2023/02/23 01:32:49;;;;;;;12.10;10.00;;;17.20;56.40;;;;;;5113924;28;20177;-57
2023/02/23 01:35:15;;;;;;;12.98;10.98;;;17.30;56.40;;;;;;5113680;28;20538;-55
2023/02/23 01:37:41;;;;;;;12.40;11.15;;;17.30;57.10;;;;;;5114025;28;20635;-55
2023/02/23 01:40:30;;;;;;;12.43;11.07;;;17.30;56.50;;;;;;5114247;28;20192;-57
2023/02/23 01:42:59;;;;;;;11.93;10.73;;;17.20;56.40;;;;;;5113657;28;20535;-58
2023/02/23 01:45:34;;;;;;;11.75;10.60;;;17.20;56.40;;;;;;5113902;28;20181;-56
2023/02/23 01:48:02;;;;;;;11.70;10.50;;;17.20;56.40;;;;;;5113242;28;20291;-57
2023/02/23 01:50:29;;;;;;;11.50;10.35;;;17.20;56.50;;;;;;5113954;28;20196;-56
2023/02/23 01:52:55;;;;;;;11.73;10.18;;;17.20;56.50;;;;;;5112381;28;20181;-55
2023/02/23 01:55:23;;;;;;;11.63;10.43;;;17.20;56.40;;;;;;5111898;28;20558;-56
2023/02/23 01:57:52;;;;;;;11.90;10.70;;;17.20;56.50;;;;;;5112358;28;20182;-57
2023/02/23 02:00:19;;;;;;;10.55;9.35;;;17.20;56.50;;;;;;5113757;28;20527;-58
2023/02/23 02:02:44;;;;;;;11.57;10.48;;;17.20;56.50;;;;;;5112783;28;20181;-58
2023/02/23 02:05:12;;;;;;;11.25;9.82;;;17.20;56.50;;;;;;5113639;28;20173;-57
2023/02/23 02:07:38;;;;;;;11.80;10.60;;;17.20;56.50;;;;;;5111596;28;20177;-57
2023/02/23 02:12:37;;;;;;;11.73;10.52;;;17.10;56.40;;;;;;5112340;28;20168;-56
2023/02/23 02:15:04;;;;;;;11.82;10.55;;;17.10;56.40;;;;;;5113515;28;20577;-57
2023/02/23 02:17:48;;;;;;;11.82;10.63;;;17.10;56.40;;;;;;5111061;28;20691;-55
2023/02/23 02:20:31;;;;;;;12.23;10.70;;;17.10;56.40;;;;;;5113509;28;20230;-56
2023/02/23 02:23:15;;;;;;;12.02;10.80;;;17.10;56.40;;;;;;5111547;28;20627;-56
2023/02/23 02:26:09;;;;;;;11.70;10.48;;;17.10;56.40;;;;;;5113229;28;20200;-55
2023/02/23 02:29:03;;;;;;;11.40;10.30;;;17.10;56.40;;;;;;5111819;28;20726;-56
2023/02/23 02:31:39;;;;;;;11.82;10.63;;;17.10;56.40;;;;;;5111559;28;20686;-56
2023/02/23 02:34:53;;;;;;;10.75;9.57;;;17.10;56.50;;;;;;5112311;28;20546;-57
2023/02/23 02:37:55;;;;;;;12.18;10.88;;;17.10;56.50;;;;;;5057097;28;20191;-56
2023/02/23 02:40:35;;;;;;;11.07;9.98;;;17.00;56.40;;;;;;5112281;28;20177;-58
2023/02/23 02:43:13;;;;;;;11.75;10.55;;;17.00;56.40;;;;;;5113433;28;20183;-57
2023/02/23 02:46:17;;;;;;;11.40;10.20;;;17.00;56.40;;;;;;5111077;28;20184;-58
2023/02/23 02:49:13;;;;;;;12.32;11.05;;;17.00;56.40;;;;;;5111756;28;20704;-56
2023/02/23 02:51:42;;;;;;;11.35;10.13;;;17.00;56.40;;;;;;5111028;28;20260;-54
2023/02/23 02:54:10;;;;;;;11.75;10.55;;;17.00;56.40;;;;;;5112124;28;20181;-56
2023/02/23 02:56:39;;;;;;;11.68;10.52;;;17.00;56.40;;;;;;5111720;28;20176;-54
2023/02/23 04:18:24;;;;;;;10.70;9.70;;;16.80;56.40;;;;;;5114352;28;20281;-57
2023/02/23 04:20:51;;;;;;;10.32;9.32;;;16.80;56.40;;;;;;5114181;28;20287;-56
2023/02/23 04:23:17;;;;;;;11.20;9.93;;;16.70;56.40;;;;;;5114778;28;20260;-55
2023/02/23 04:25:42;;;;;;;11.40;10.20;;;16.80;56.40;;;;;;5113970;28;20581;-55
2023/02/23 04:28:08;;;;;;;10.18;9.18;;;16.70;56.40;;;;;;5115355;28;20324;-55
2023/02/23 04:30:33;;;;;;;11.27;10.13;;;16.70;56.30;;;;;;5113952;28;20214;-57
2023/02/23 04:32:59;;;;;;;10.90;9.80;;;16.80;56.40;;;;;;5115575;28;20177;-57
2023/02/23 04:35:26;;;;;;;10.52;9.52;;;16.70;56.30;;;;;;5115633;28;20188;-55
2023/02/23 04:37:52;;;;;;;10.75;9.75;;;16.70;56.90;;;;;;5114366;28;20199;-57
2023/02/23 04:40:17;;;;;;;10.07;9.07;;;16.70;56.30;;;;;;5115158;28;20213;-58
2023/02/23 04:42:43;;;;;;;11.00;9.82;;;16.70;56.30;;;;;;5115134;28;20204;-58
2023/02/23 04:45:09;;;;;;;10.55;9.60;;;16.70;56.40;;;;;;5114669;28;20173;-58
2023/02/23 04:47:35;;;;;;;11.52;10.30;;;16.70;56.40;;;;;;5114723;28;20714;-56
2023/02/23 04:50:00;;;;;;;9.88;8.85;;;16.70;56.40;;;;;;5115190;28;20177;-58
2023/02/23 04:52:26;;;;;;;10.82;9.48;;;16.70;56.40;;;;;;5114556;28;20197;-55
2023/02/23 04:54:51;;;;;;;10.30;9.30;;;16.70;56.40;;;;;;5114741;28;20211;-56
2023/02/23 04:57:17;;;;;;;10.25;9.23;;;16.70;56.40;;;;;;5114362;28;20200;-55
2023/02/23 04:59:42;;;;;;;10.10;9.10;;;16.70;56.40;;;;;;5114544;28;20179;-56
2023/02/23 05:02:08;;;;;;;12.35;10.93;;;16.70;56.40;;;;;;5114912;28;20165;-58
2023/02/23 05:04:34;;;;;;;10.52;9.45;;;16.60;56.30;;;;;;5113712;28;20169;-56
2023/02/23 05:07:00;;;;;;;10.43;9.30;;;16.60;56.30;;;;;;5114861;28;20256;-57
2023/02/23 05:09:25;;;;;;;10.02;9.13;;;16.70;56.40;;;;;;5114755;28;20603;-57
2023/02/23 05:11:51;;;;;;;10.82;9.73;;;16.70;56.40;;;;;;5113803;28;20169;-55
2023/02/23 05:14:16;;;;;;;10.02;9.02;;;16.60;56.40;;;;;;5114514;28;20184;-56
2023/02/23 05:16:42;;;;;;;10.57;9.48;;;16.60;56.40;;;;;;5114334;28;20173;-56
2023/02/23 05:19:07;;;;;;;10.20;9.20;;;16.70;56.40;;;;;;5113694;28;20229;-57
2023/02/23 05:21:33;;;;;;;9.63;8.60;;;16.70;56.50;;;;;;5113943;28;20184;-57
2023/02/23 05:23:59;;;;;;;10.75;9.65;;;16.60;56.40;;;;;;5114305;28;20169;-55
2023/02/23 05:26:24;;;;;;;9.57;8.68;;;16.60;56.40;;;;;;5113852;28;20264;-57
2023/02/23 05:28:50;;;;;;;10.30;9.20;;;16.60;56.40;;;;;;5114027;28;20211;-57
2023/02/23 05:31:16;;;;;;;9.68;8.70;;;16.60;56.40;;;;;;5114456;28;20703;-55
2023/02/23 05:33:41;;;;;;;10.00;9.07;;;16.60;56.40;;;;;;5113188;28;20659;-57
2023/02/23 05:36:10;;;;;;;9.27;8.38;;;16.60;56.40;;;;;;5114137;28;20178;-58
2023/02/23 05:38:36;;;;;;;9.55;8.65;;;16.60;56.40;;;;;;5113626;28;20181;-57
2023/02/23 05:41:13;;;;;;;9.30;8.40;;;16.60;56.40;;;;;;5112967;28;20217;-57
2023/02/23 05:43:38;;;;;;;9.32;8.48;;;16.60;56.40;;;;;;5113851;28;20234;-58
2023/02/23 05:46:11;;;;;;;9.45;8.55;;;16.60;56.50;;;;;;5114152;28;20165;-58
2023/02/23 05:48:37;;;;;;;9.93;8.93;;;16.60;56.40;;;;;;5112830;28;20209;-55
2023/02/23 05:51:03;;;;;;;10.05;9.05;;;16.60;56.40;;;;;;5113871;28;20196;-55
2023/02/23 05:53:29;;;;;;;9.45;8.55;;;16.60;56.40;;;;;;5113028;28;20623;-54
2023/02/23 05:55:54;;;;;;;9.68;8.73;;;16.50;56.40;;;;;;5113771;28;20188;-56
2023/02/23 05:58:20;;;;;;;10.00;9.00;;;16.60;56.50;;;;;;5113913;28;20173;-58
2023/02/23 06:00:46;;;;;;;9.68;8.77;;;16.60;56.50;;;;;;5112663;28;20184;-58
2023/02/23 06:03:11;;;;;;;9.52;8.63;;;16.60;56.50;;;;;;5113570;28;20169;-58
2023/02/23 06:05:37;;;;;;;9.32;8.43;;;16.60;56.50;;;;;;5113649;28;20214;-57
2023/02/23 06:08:02;;;;;;;9.00;8.20;;;16.50;56.40;;;;;;5113050;28;20200;-58
2023/02/23 06:10:28;;;;;;;9.55;8.65;;;16.50;56.40;;;;;;5113770;28;20173;-55
2023/02/23 06:12:53;;;;;;;9.55;8.60;;;16.50;56.50;;;;;;5113325;28;20233;-56
2023/02/23 06:15:19;;;;;;;10.55;9.55;;;16.50;56.50;;;;;;5112923;28;20164;-57
2023/02/23 06:17:44;;;;;;;9.00;8.10;;;16.50;56.40;;;;;;5112897;28;20217;-57
2023/02/23 06:20:10;;;;;;;9.10;8.30;;;16.50;56.50;;;;;;5113601;28;20246;-56
2023/02/23 06:22:36;;;;;;;10.05;9.00;;;16.50;56.50;;;;;;5112489;28;20173;-57
2023/02/23 06:25:07;;;;;;;9.07;8.27;;;16.50;56.50;;;;;;5113532;28;20195;-57
2023/02/23 06:27:33;;;;;;;9.20;8.30;;;16.50;56.40;;;;;;5112946;28;20177;-57
2023/02/23 06:29:58;;;;;;;9.13;8.20;;;16.50;56.50;;;;;;5112675;28;20268;-57
2023/02/23 06:32:25;;;;;;;9.63;8.63;;;16.50;56.40;;;;;;5113352;28;20252;-56
2023/02/23 06:34:51;;;;;;;9.30;8.40;;;16.50;56.50;;;;;;5112985;28;20207;-58
2023/02/23 06:37:16;;;;;;;8.55;7.75;;;16.50;56.50;;;;;;5112821;28;20627;-58
2023/02/23 06:39:42;;;;;;;9.43;8.50;;;16.50;56.40;;;;;;5112976;28;20519;-58
2023/02/23 06:42:07;;;;;;;9.23;8.32;;;16.50;56.50;;;;;;5113378;28;20172;-57
2023/02/23 06:44:34;;;;;;;8.63;7.75;;;16.50;56.50;;;;;;5112314;28;20635;-58
2023/02/23 06:47:00;;;;;;;8.73;7.82;;;16.50;56.50;;;;;;5113266;28;20177;-58
2023/02/23 06:49:25;;;;;;;8.77;7.88;;;16.50;56.50;;;;;;5113244;28;20205;-56
2023/02/23 06:51:51;;;;;;;8.57;7.68;;;16.40;56.50;;;;;;5112395;28;20173;-56
2023/02/23 06:54:16;;;;;;;9.73;8.73;;;16.40;56.50;;;;;;5116470;28;20165;-58
2023/02/23 06:56:42;;;;;;;8.68;7.85;;;16.40;56.50;;;;;;5117162;28;20188;-57
2023/02/23 06:59:08;;;;;;;9.30;8.40;;;16.40;56.50;;;;;;5116642;28;20647;-57
2023/02/23 07:01:33;;;;;;;8.70;7.85;;;16.40;56.50;;;;;;5116831;28;20180;-58
2023/02/23 07:04:00;;;;;;;8.57;7.78;;;16.40;56.50;;;;;;5116204;28;20230;-59
2023/02/23 07:06:25;;;;;;;7.95;7.25;;;16.40;56.50;;;;;;5117077;28;20173;-58
2023/02/23 07:08:51;;;;;;;8.85;7.95;;;16.40;56.50;;;;;;5116563;28;20547;-58
2023/02/23 07:11:18;;;;;;;9.00;8.10;;;16.40;56.50;;;;;;5116346;28;20177;-55
2023/02/23 07:13:44;;;;;;;9.07;8.18;;;16.40;56.50;;;;;;5117008;28;20302;-56
2023/02/23 07:16:09;;;;;;;9.23;8.32;;;16.40;56.50;;;;;;5116772;28;20581;-58
2023/02/23 07:18:35;;;;;;;8.73;7.93;;;16.40;56.50;;;;;;5115652;28;20233;-56
2023/02/23 07:21:00;;;;;;;8.90;8.00;;;16.40;56.50;;;;;;5116617;28;20165;-57
2023/02/23 07:23:27;;;;;;;9.15;8.25;;;16.40;56.50;;;;;;5116788;28;20199;-56
2023/02/23 07:25:55;;;;;;;8.52;7.63;;;16.40;56.50;;;;;;5115526;28;20173;-54
2023/02/23 07:28:21;;;;;;;8.80;8.00;;;16.40;56.50;;;;;;5116708;28;20216;-57
2023/02/23 07:30:48;;;;;;;9.88;7.80;;;16.30;56.40;;;;;;5116303;28;20631;-57
2023/02/23 07:33:14;;;;;;;9.35;8.45;;;16.40;56.50;;;;;;5115708;28;20177;-58
2023/02/23 07:35:41;;;;;;;8.75;7.95;;;16.30;56.50;;;;;;5116221;28;20184;-56
2023/02/23 07:38:06;;;;;;;8.63;7.72;;;16.40;56.50;;;;;;5116301;28;20526;-56
2023/02/23 07:40:32;;;;;;;8.82;7.93;;;16.30;56.50;;;;;;5115380;28;20184;-58
2023/02/23 07:42:58;;;;;;;8.00;7.30;;;16.40;56.50;;;;;;5116214;28;20663;-57
2023/02/23 07:45:23;;;;;;;8.07;7.30;;;16.40;56.50;;;;;;5116244;28;20188;-57
2023/02/23 07:47:49;;;;;;;8.70;7.80;;;16.40;56.50;;;;;;5115062;28;20173;-56
2023/02/23 07:50:15;;;;;;;8.30;7.50;;;16.40;56.50;;;;;;5116443;28;20249;-55
2023/02/23 07:52:41;;;;;;;8.00;7.20;;;16.40;56.50;;;;;;5115668;28;20583;-55
2023/02/23 07:55:07;;;;;;;7.65;6.75;;;16.40;56.50;;;;;;5115492;28;20278;-69
2023/02/23 07:57:33;;;;;;;7.18;6.57;;;16.40;56.60;;;;;;5115890;28;20214;-67
2023/02/23 07:59:58;;;;;;;8.20;7.40;;;16.40;56.50;;;;;;5116015;28;20169;-68
2023/02/23 08:02:24;;;;;;;7.47;6.72;;;16.40;56.40;;;;;;5115456;28;20169;-66
2023/02/23 08:04:52;;;;;;;8.70;7.90;;;16.40;57.00;;;;;;5114722;28;20545;-64
2023/02/23 08:07:18;;;;;;;7.85;7.15;;;16.40;57.10;;;;;;5115304;28;20177;-66
2023/02/23 08:09:44;;;;;;;7.80;7.00;;;16.40;57.00;;;;;;5115350;28;20642;-64
2023/02/23 08:12:09;;;;;;;8.70;7.30;;;16.50;57.00;;;;;;5116009;28;20267;-63
2023/02/23 08:14:35;;;;;;;11.20;7.53;;;16.40;57.70;;;;;;5114478;28;20267;-62
2023/02/23 08:17:00;;;;;;;7.93;7.13;;;16.50;57.40;;;;;;5115712;28;20173;-62
2023/02/23 08:19:26;;;;;;;7.97;7.18;;;16.50;57.20;;;;;;5115803;28;20179;-62
2023/02/23 08:21:52;;;;;;;8.60;7.25;;;16.50;57.20;;;;;;5114762;28;20173;-63
2023/02/23 08:24:17;;;;;;;12.23;6.82;;;16.50;57.10;;;;;;5115619;28;20215;-62
2023/02/23 08:26:43;;;;;;;7.15;6.45;;;16.50;57.20;;;;;;5115299;28;20211;-61
2023/02/23 08:29:09;;;;;;;7.75;7.05;;;16.50;57.00;;;;;;5114663;28;20236;-62
2023/02/23 08:31:34;;;;;;;7.35;6.70;;;16.50;57.10;;;;;;5115078;28;20218;-62
2023/02/23 08:34:00;;;;;;;7.32;6.50;;;16.50;57.10;;;;;;5115556;28;20181;-63
2023/02/23 08:36:25;;;;;;;7.13;6.40;;;16.50;57.10;;;;;;5114682;28;20511;-62
2023/02/23 08:38:53;;;;;;;8.45;7.65;;;16.50;57.10;;;;;;5115143;28;20776;-62
2023/02/23 08:41:18;;;;;;;6.75;6.15;;;16.50;57.10;;;;;;5115165;28;20214;-62
2023/02/23 08:43:44;;;;;;;7.05;6.35;;;16.50;57.20;;;;;;5114075;28;20177;-62
2023/02/23 08:46:09;;;;;;;8.95;6.85;;;16.50;57.20;;;;;;5115095;28;20179;-69
2023/02/23 08:48:35;;;;;;;7.47;6.55;;;16.50;57.40;;;;;;5114943;28;20213;-68
2023/02/23 08:51:01;;;;;;;7.30;6.65;;;16.50;57.60;;;;;;5114379;28;20627;-68
2023/02/23 08:53:28;;;;;;;8.23;7.30;;;16.40;57.30;;;;;;5115000;28;20627;-68
2023/02/23 08:55:57;;;;;;;7.70;6.93;;;16.40;57.50;;;;;;5114751;28;20188;-70
2023/02/23 08:58:23;;;;;;;8.35;7.13;;;16.40;57.60;;;;;;5113835;28;20185;-71
2023/02/23 09:00:48;;;;;;;7.60;6.90;;;16.40;57.40;;;;;;5114455;28;20172;-69
2023/02/23 09:03:14;;;;;;;7.25;6.55;;;16.30;57.40;;;;;;5114780;28;20197;-69
2023/02/23 09:05:39;;;;;;;7.93;7.05;;;16.40;57.30;;;;;;5113639;28;20179;-69
2023/02/23 09:08:05;;;;;;;7.75;7.05;;;16.40;57.50;;;;;;5114811;28;20221;-68
2023/02/23 09:10:32;;;;;;;10.60;7.10;;;16.30;57.70;;;;;;5113914;28;20173;-69
2023/02/23 09:12:57;;;;;;;7.13;6.45;;;16.30;57.70;;;;;;5114468;28;20173;-69
2023/02/23 09:15:23;;;;;;;7.57;6.88;;;16.30;57.90;;;;;;5114233;28;20624;-69
2023/02/23 09:17:48;;;;;;;7.38;6.40;;;16.30;57.90;;;;;;5113055;28;20274;-69
2023/02/23 09:20:15;;;;;;;7.38;6.68;;;16.40;57.70;;;;;;5114162;28;20176;-69
2023/02/23 09:22:47;;;;;;;7.03;6.32;;;16.40;57.60;;;;;;5114047;28;20260;-69
2023/02/23 09:25:21;;;;;;;7.50;6.80;;;16.40;57.40;;;;;;5113528;28;20173;-69
2023/02/23 09:27:51;;;;;;;8.13;6.68;;;16.40;57.40;;;;;;5113913;28;20173;-68
2023/02/23 09:30:19;;;;;;;7.10;6.32;;;16.50;57.30;;;;;;5114315;28;20181;-68
2023/02/23 09:32:51;;;;;;;7.53;6.80;;;16.50;57.30;;;;;;5113053;28;20628;-68
2023/02/23 09:35:17;;;;;;;7.15;6.45;;;16.40;57.20;;;;;;5114199;28;20520;-69
2023/02/23 09:37:45;;;;;;;7.18;6.47;;;16.50;57.20;;;;;;5113611;28;20230;-69
2023/02/23 09:40:17;;;;;;;6.80;6.10;;;16.50;57.20;;;;;;5113141;28;20632;-68
2023/02/23 09:42:56;;;;;;;6.97;6.32;;;16.50;57.30;;;;;;5112552;28;20173;-67
2023/02/23 09:45:43;;;;;;;5.93;5.43;;;16.50;57.30;;;;;;5113896;28;20671;-67
2023/02/23 09:48:11;;;;;;;6.68;5.95;;;16.40;57.30;;;;;;5112490;28;20340;-67
2023/02/23 09:50:37;;;;;;;6.53;5.93;;;16.40;57.30;;;;;;5113343;28;20620;-66
2023/02/23 09:53:23;;;;;;;7.38;6.68;;;16.40;57.30;;;;;;5111998;28;20177;-66
2023/02/23 09:55:49;;;;;;;7.22;6.15;;;16.50;57.30;;;;;;5096823;28;20184;-68
2023/02/23 09:58:25;;;;;;;6.60;6.00;;;16.50;57.30;;;;;;5112576;28;20173;-71
2023/02/23 10:01:17;;;;;;;6.88;6.25;;;16.50;57.30;;;;;;5111302;28;20200;-69
2023/02/23 10:03:51;;;;;;;6.70;6.10;;;16.50;57.40;;;;;;5097896;28;20170;-70
2023/02/23 10:06:17;;;;;;;7.07;6.32;;;16.40;57.30;;;;;;5113443;28;20172;-69
2023/02/23 10:08:50;;;;;;;6.18;5.40;;;16.50;57.30;;;;;;5094147;28;20201;-68
2023/02/23 10:11:25;;;;;;;5.82;5.32;;;16.50;57.30;;;;;;5112089;28;20217;-69
2023/02/23 10:14:08;;;;;;;6.22;5.65;;;16.40;57.30;;;;;;5112310;28;20183;-69
2023/02/23 10:16:59;;;;;;;6.45;5.82;;;16.50;57.40;;;;;;5111969;28;20173;-69
2023/02/23 10:19:31;;;;;;;6.25;5.65;;;16.40;57.30;;;;;;5113731;28;20253;-70
2023/02/23 10:22:06;;;;;;;6.10;5.57;;;16.40;57.30;;;;;;5112587;28;20169;-69
2023/02/23 10:24:38;;;;;;;5.95;5.35;;;16.40;57.40;;;;;;5096520;28;20179;-69
2023/02/23 10:27:28;;;;;;;6.20;5.60;;;16.40;57.40;;;;;;5095908;28;20180;-69
2023/02/23 10:29:54;;;;;;;6.20;5.60;;;16.50;57.40;;;;;;5097177;28;20216;-70
2023/02/23 10:32:54;;;;;;;6.20;5.60;;;16.50;57.30;;;;;;5113212;28;20184;-69
2023/02/23 10:35:20;;;;;;;6.60;6.00;;;16.50;57.30;;;;;;5099464;28;20185;-71
2023/02/23 10:37:46;;;;;;;7.00;6.18;;;16.50;57.30;;;;;;5112988;28;20535;-69
2023/02/23 10:40:16;;;;;;;6.00;5.50;;;16.40;57.40;;;;;;5113367;28;20169;-70
2023/02/23 10:42:42;;;;;;;6.35;5.65;;;16.50;57.40;;;;;;5111029;28;20285;-69
2023/02/23 10:45:18;;;;;;;6.00;5.35;;;16.40;57.50;;;;;;5113320;28;20208;-69
2023/02/23 10:47:44;;;;;;;5.82;5.32;;;16.40;57.50;;;;;;5113118;28;20212;-69
2023/02/23 10:50:10;;;;;;;6.03;5.47;;;16.40;57.50;;;;;;5111356;28;20258;-68
2023/02/23 10:52:45;;;;;;;6.05;5.55;;;16.40;57.60;;;;;;5112846;28;20173;-69
2023/02/23 10:55:30;;;;;;;6.07;5.53;;;16.40;57.70;;;;;;5112068;28;20180;-69
2023/02/23 10:58:16;;;;;;;6.65;5.93;;;16.40;57.50;;;;;;5112199;28;20197;-70
2023/02/23 11:01:01;;;;;;;6.10;5.60;;;16.40;57.50;;;;;;5111775;28;20169;-70
2023/02/23 11:03:46;;;;;;;5.65;5.15;;;16.50;57.50;;;;;;5111095;28;20185;-69
2023/02/23 11:06:34;;;;;;;6.72;5.80;;;16.50;57.40;;;;;;5113304;28;20248;-69
2023/02/23 11:09:28;;;;;;;6.60;6.00;;;16.50;57.60;;;;;;5112747;28;20599;-69
2023/02/23 11:12:24;;;;;;;6.35;5.75;;;16.50;57.50;;;;;;5110336;28;20181;-69
2023/02/23 11:14:52;;;;;;;6.35;5.75;;;16.40;57.60;;;;;;5088334;28;20196;-70
2023/02/23 11:17:34;;;;;;;5.78;5.28;;;16.40;57.70;;;;;;5110308;28;20498;-69
2023/02/23 11:20:21;;;;;;;5.90;5.30;;;16.40;57.80;;;;;;5111164;28;20244;-71
2023/02/23 11:22:47;;;;;;;5.90;5.32;;;16.40;57.60;;;;;;5110671;28;20195;-67
2023/02/23 11:25:23;;;;;;;5.97;5.38;;;16.40;57.70;;;;;;5111745;28;20575;-70
2023/02/23 11:27:52;;;;;;;6.13;5.55;;;16.40;57.60;;;;;;5110993;28;20172;-69
2023/02/23 11:30:24;;;;;;;5.45;4.95;;;16.40;57.60;;;;;;5111287;28;20184;-67
2023/02/23 11:32:55;;;;;;;6.55;5.93;;;16.40;57.50;;;;;;5093672;28;20178;-70
2023/02/23 11:35:20;;;;;;;6.20;5.60;;;16.40;57.40;;;;;;5112529;28;20193;-70
2023/02/23 11:37:47;;;;;;;5.68;5.13;;;16.40;57.40;;;;;;5112147;28;20534;-69
2023/02/23 11:40:31;;;;;;;6.32;5.72;;;16.40;57.50;;;;;;5113036;28;20181;-69
2023/02/23 11:43:03;;;;;;;5.22;4.72;;;16.40;57.60;;;;;;5114624;28;20177;-68
2023/02/23 11:45:32;;;;;;;5.82;5.25;;;16.40;57.60;;;;;;5115505;28;20173;-69
2023/02/23 11:47:59;;;;;;;6.15;5.55;;;16.40;57.60;;;;;;5098252;28;20166;-68
2023/02/23 11:50:29;;;;;;;5.70;5.20;;;16.30;57.60;;;;;;5097889;28;20184;-67
2023/02/23 11:53:16;;;;;;;5.15;4.65;;;16.30;57.60;;;;;;5114738;28;20260;-68
2023/02/23 11:55:53;;;;;;;5.18;4.75;;;16.40;57.70;;;;;;5114183;28;20176;-69
2023/02/23 11:58:30;;;;;;;5.53;4.93;;;16.40;57.70;;;;;;5115580;28;20601;-69
2023/02/23 12:01:10;;;;;;;6.10;4.88;;;16.40;57.60;;;;;;5114798;28;20179;-69
2023/02/23 12:03:36;;;;;;;6.22;5.63;;;16.40;57.50;;;;;;5115483;28;20639;-69
2023/02/23 12:06:02;;;;;;;5.18;4.70;;;16.40;57.50;;;;;;5114298;28;20204;-69
2023/02/23 12:08:34;;;;;;;5.88;5.38;;;16.40;57.50;;;;;;5115000;28;20608;-68
2023/02/23 12:11:01;;;;;;;5.43;4.93;;;16.40;57.40;;;;;;5097558;28;20177;-68
2023/02/23 12:13:33;;;;;;;5.25;4.75;;;16.40;57.50;;;;;;5096697;28;20623;-69
2023/02/23 12:16:01;;;;;;;5.18;4.68;;;16.40;57.60;;;;;;5114184;28;20181;-68
2023/02/23 12:18:42;;;;;;;5.60;5.10;;;16.40;57.80;;;;;;5115034;28;20289;-68
2023/02/23 12:21:22;;;;;;;5.20;4.70;;;16.40;57.90;;;;;;5114774;28;20181;-69
2023/02/23 12:23:48;;;;;;;5.05;4.55;;;16.40;58.30;;;;;;5115009;28;20633;-69
2023/02/23 12:26:18;;;;;;;4.70;4.30;;;16.40;57.60;;;;;;5115250;28;20204;-68
2023/02/23 12:29:13;;;;;;;5.28;4.78;;;16.50;57.60;;;;;;5096073;28;20620;-69
2023/02/23 12:31:44;;;;;;;5.15;4.72;;;16.50;57.50;;;;;;5115079;28;20173;-69
2023/02/23 12:34:34;;;;;;;5.07;4.55;;;16.50;57.40;;;;;;5113990;28;20220;-70
2023/02/23 12:37:08;;;;;;;5.38;4.88;;;16.50;57.30;;;;;;5113703;28;20639;-69
2023/02/23 12:39:42;;;;;;;5.43;4.93;;;16.50;57.40;;;;;;5097053;28;20621;-70
2023/02/23 12:42:34;;;;;;;5.70;5.20;;;16.50;57.50;;;;;;5113021;28;20181;-69
2023/02/23 12:45:02;;;;;;;4.70;4.30;;;16.50;57.80;;;;;;5113798;28;20213;-68
2023/02/23 12:47:34;;;;;;;5.25;4.85;;;16.50;57.80;;;;;;5113449;28;20659;-68
2023/02/23 12:50:12;;;;;;;5.05;4.60;;;16.40;57.70;;;;;;5112932;28;20212;-67
2023/02/23 12:52:50;;;;;;;4.38;3.97;;;16.40;57.70;;;;;;5097840;28;20252;-68
2023/02/23 12:55:15;;;;;;;5.03;4.38;;;16.40;57.70;;;;;;5097639;28;20559;-68
2023/02/23 12:57:44;;;;;;;4.53;3.85;;;16.50;57.60;;;;;;5112336;28;20176;-69
2023/02/23 13:00:31;;;;;;;4.20;3.80;;;16.60;58.20;;;;;;5114424;28;20200;-70
2023/02/23 13:03:14;;;;;;;4.32;3.92;;;16.60;57.40;;;;;;5113590;28;20538;-69
2023/02/23 13:06:01;;;;;;;4.38;3.95;;;16.60;57.40;;;;;;5114167;28;20639;-70
2023/02/23 13:08:32;;;;;;;4.40;4.00;;;16.60;57.50;;;;;;5113183;28;20303;-68
2023/02/23 13:11:05;;;;;;;5.00;4.60;;;16.50;57.50;;;;;;5113706;28;20165;-68
2023/02/23 13:13:44;;;;;;;4.28;3.88;;;16.50;57.60;;;;;;5113174;28;20260;-69
2023/02/23 13:16:12;;;;;;;4.53;4.00;;;16.40;57.70;;;;;;5097744;28;20208;-68
2023/02/23 13:18:51;;;;;;;4.57;4.15;;;16.40;57.90;;;;;;5112967;28;20232;-68
2023/02/23 13:21:23;;;;;;;4.13;3.80;;;16.50;57.80;;;;;;5113037;28;20173;-68
2023/02/23 13:23:54;;;;;;;4.18;3.78;;;16.50;57.80;;;;;;5095586;28;20176;-68
2023/02/23 13:26:37;;;;;;;3.90;3.60;;;16.50;57.70;;;;;;5114042;28;20165;-68
2023/02/23 13:29:24;;;;;;;4.03;3.63;;;16.60;57.60;;;;;;5113822;28;20204;-69
2023/02/23 13:31:49;;;;;;;4.13;3.67;;;16.60;57.60;;;;;;5112921;28;20161;-70
2023/02/23 13:34:29;;;;;;;3.90;3.60;;;16.60;57.60;;;;;;5095667;28;20173;-69
2023/02/23 13:36:54;;;;;;;4.30;3.70;;;16.60;57.60;;;;;;5095972;28;20208;-70
2023/02/23 13:39:29;;;;;;;3.75;3.45;;;16.50;57.60;;;;;;5094814;28;20201;-69
2023/02/23 13:42:08;;;;;;;4.85;3.53;;;16.50;57.80;;;;;;5113411;28;20185;-69
2023/02/23 13:44:36;;;;;;;3.58;3.28;;;16.50;58.00;;;;;;5113416;28;20315;-69
2023/02/23 13:47:26;;;;;;;4.22;3.75;;;16.50;57.90;;;;;;5111923;28;20260;-68
2023/02/23 13:49:58;;;;;;;4.18;3.75;;;16.50;57.80;;;;;;5113365;28;20357;-68
2023/02/23 13:52:41;;;;;;;3.70;3.17;;;16.60;57.80;;;;;;5111478;28;20173;-68
2023/02/23 13:55:25;;;;;;;3.65;3.35;;;16.60;57.70;;;;;;5113489;28;20173;-68
2023/02/23 13:58:14;;;;;;;3.70;3.40;;;16.50;57.60;;;;;;5113196;28;20565;-72
2023/02/23 14:00:39;;;;;;;3.80;3.50;;;16.60;57.60;;;;;;5111064;28;20200;-70
2023/02/23 14:03:05;;;;;;;4.07;3.53;;;16.50;57.60;;;;;;5112762;28;20207;-69
2023/02/23 14:05:40;;;;;;;3.33;3.05;;;16.60;57.70;;;;;;5112361;28;20204;-69
2023/02/23 14:08:06;;;;;;;3.58;3.28;;;16.60;57.70;;;;;;5111478;28;20179;-69
2023/02/23 14:10:39;;;;;;;3.38;3.17;;;16.50;57.70;;;;;;5112091;28;20509;-68
2023/02/23 14:13:16;;;;;;;3.75;3.40;;;16.50;57.80;;;;;;5111392;28;20192;-69
2023/02/23 14:15:47;;;;;;;3.03;2.83;;;16.50;57.80;;;;;;5113051;28;20260;-69
2023/02/23 14:18:18;;;;;;;3.65;2.90;;;16.60;57.80;;;;;;5113118;28;20263;-69
2023/02/23 14:20:50;;;;;;;3.13;2.92;;;16.60;57.60;;;;;;5112072;28;20631;-69